sensor_id;sensor_type;location;lat;lon;timestamp;P1;durP1;ratioP1;P2;durP2;ratioP2
69779;SDS011;57052;55.602;38.096;2023-04-06T00:01:26;7.72;;;4.20;;
69779;SDS011;57052;55.602;38.096;2023-04-06T00:03:51;7.60;;;4.03;;
69779;SDS011;57052;55.602;38.096;2023-04-06T00:06:17;7.53;;;4.15;;
69779;SDS011;57052;55.602;38.096;2023-04-06T00:08:42;10.85;;;5.15;;
69779;SDS011;57052;55.602;38.096;2023-04-06T00:11:09;10.25;;;4.72;;
69779;SDS011;57052;55.602;38.096;2023-04-06T00:13:35;8.68;;;4.40;;
69779;SDS011;57052;55.602;38.096;2023-04-06T00:16:00;9.68;;;5.05;;
69779;SDS011;57052;55.602;38.096;2023-04-06T00:18:26;8.45;;;4.75;;
69779;SDS011;57052;55.602;38.096;2023-04-06T00:20:52;10.45;;;4.40;;
69779;SDS011;57052;55.602;38.096;2023-04-06T00:23:17;11.20;;;4.88;;
69779;SDS011;57052;55.602;38.096;2023-04-06T00:25:43;11.85;;;4.40;;
69779;SDS011;57052;55.602;38.096;2023-04-06T00:28:09;8.75;;;4.55;;
69779;SDS011;57052;55.602;38.096;2023-04-06T00:30:34;10.23;;;4.22;;
69779;SDS011;57052;55.602;38.096;2023-04-06T00:33:00;6.95;;;4.10;;
69779;SDS011;57052;55.602;38.096;2023-04-06T00:35:25;8.70;;;4.30;;
69779;SDS011;57052;55.602;38.096;2023-04-06T00:37:51;9.70;;;4.75;;
69779;SDS011;57052;55.602;38.096;2023-04-06T00:40:17;9.98;;;4.32;;
69779;SDS011;57052;55.602;38.096;2023-04-06T00:42:43;7.65;;;4.30;;
69779;SDS011;57052;55.602;38.096;2023-04-06T00:45:09;11.68;;;4.55;;
69779;SDS011;57052;55.602;38.096;2023-04-06T00:47:35;7.25;;;4.10;;
69779;SDS011;57052;55.602;38.096;2023-04-06T00:50:01;8.90;;;4.55;;
69779;SDS011;57052;55.602;38.096;2023-04-06T00:52:26;8.48;;;4.15;;
69779;SDS011;57052;55.602;38.096;2023-04-06T00:54:52;15.90;;;4.75;;
69779;SDS011;57052;55.602;38.096;2023-04-06T00:57:18;7.07;;;3.78;;
69779;SDS011;57052;55.602;38.096;2023-04-06T00:59:45;9.13;;;4.70;;
69779;SDS011;57052;55.602;38.096;2023-04-06T01:02:11;8.52;;;4.10;;
69779;SDS011;57052;55.602;38.096;2023-04-06T01:04:37;7.15;;;4.03;;
69779;SDS011;57052;55.602;38.096;2023-04-06T01:07:02;8.25;;;4.20;;
69779;SDS011;57052;55.602;38.096;2023-04-06T01:09:28;7.90;;;3.70;;
69779;SDS011;57052;55.602;38.096;2023-04-06T01:11:57;10.07;;;4.15;;
69779;SDS011;57052;55.602;38.096;2023-04-06T01:14:23;10.32;;;4.13;;
69779;SDS011;57052;55.602;38.096;2023-04-06T01:16:50;7.47;;;4.32;;
69779;SDS011;57052;55.602;38.096;2023-04-06T01:19:17;7.45;;;3.78;;
69779;SDS011;57052;55.602;38.096;2023-04-06T01:21:43;8.70;;;4.20;;
69779;SDS011;57052;55.602;38.096;2023-04-06T01:24:09;9.40;;;4.40;;
69779;SDS011;57052;55.602;38.096;2023-04-06T01:26:35;8.65;;;4.07;;
69779;SDS011;57052;55.602;38.096;2023-04-06T01:29:01;7.07;;;3.92;;
69779;SDS011;57052;55.602;38.096;2023-04-06T01:31:27;7.22;;;3.78;;
69779;SDS011;57052;55.602;38.096;2023-04-06T01:33:53;8.85;;;4.35;;
69779;SDS011;57052;55.602;38.096;2023-04-06T01:36:19;6.90;;;4.00;;
69779;SDS011;57052;55.602;38.096;2023-04-06T01:38:45;8.85;;;4.40;;
69779;SDS011;57052;55.602;38.096;2023-04-06T01:41:11;9.23;;;4.60;;
69779;SDS011;57052;55.602;38.096;2023-04-06T01:43:37;6.80;;;4.03;;
69779;SDS011;57052;55.602;38.096;2023-04-06T01:46:03;9.10;;;4.20;;
69779;SDS011;57052;55.602;38.096;2023-04-06T01:48:28;7.53;;;4.18;;
69779;SDS011;57052;55.602;38.096;2023-04-06T01:50:54;6.68;;;3.88;;
69779;SDS011;57052;55.602;38.096;2023-04-06T01:53:20;8.18;;;4.32;;
69779;SDS011;57052;55.602;38.096;2023-04-06T01:55:46;7.75;;;4.35;;
69779;SDS011;57052;55.602;38.096;2023-04-06T01:58:12;8.93;;;4.20;;
69779;SDS011;57052;55.602;38.096;2023-04-06T02:00:38;9.23;;;4.43;;
69779;SDS011;57052;55.602;38.096;2023-04-06T02:03:03;8.75;;;4.45;;
69779;SDS011;57052;55.602;38.096;2023-04-06T02:05:29;10.98;;;4.38;;
69779;SDS011;57052;55.602;38.096;2023-04-06T02:07:56;8.13;;;4.40;;
69779;SDS011;57052;55.602;38.096;2023-04-06T02:10:22;12.63;;;4.78;;
69779;SDS011;57052;55.602;38.096;2023-04-06T02:12:48;9.82;;;4.70;;
69779;SDS011;57052;55.602;38.096;2023-04-06T02:15:14;10.38;;;4.57;;
69779;SDS011;57052;55.602;38.096;2023-04-06T02:17:41;8.70;;;4.63;;
69779;SDS011;57052;55.602;38.096;2023-04-06T02:20:07;9.75;;;5.15;;
69779;SDS011;57052;55.602;38.096;2023-04-06T02:22:34;10.57;;;5.05;;
69779;SDS011;57052;55.602;38.096;2023-04-06T02:25:00;11.80;;;4.93;;
69779;SDS011;57052;55.602;38.096;2023-04-06T02:27:26;10.55;;;4.75;;
69779;SDS011;57052;55.602;38.096;2023-04-06T02:29:52;11.48;;;5.10;;
69779;SDS011;57052;55.602;38.096;2023-04-06T02:32:17;11.13;;;5.20;;
69779;SDS011;57052;55.602;38.096;2023-04-06T02:34:43;8.40;;;4.70;;
69779;SDS011;57052;55.602;38.096;2023-04-06T02:37:08;10.88;;;4.97;;
69779;SDS011;57052;55.602;38.096;2023-04-06T02:39:34;9.10;;;5.30;;
69779;SDS011;57052;55.602;38.096;2023-04-06T02:42:00;9.38;;;4.85;;
69779;SDS011;57052;55.602;38.096;2023-04-06T02:44:25;9.63;;;5.35;;
69779;SDS011;57052;55.602;38.096;2023-04-06T02:46:51;11.18;;;5.47;;
69779;SDS011;57052;55.602;38.096;2023-04-06T02:49:16;11.02;;;4.90;;
69779;SDS011;57052;55.602;38.096;2023-04-06T02:51:42;10.05;;;5.28;;
69779;SDS011;57052;55.602;38.096;2023-04-06T02:54:07;14.10;;;4.90;;
69779;SDS011;57052;55.602;38.096;2023-04-06T02:56:33;9.32;;;4.75;;
69779;SDS011;57052;55.602;38.096;2023-04-06T02:58:58;12.00;;;4.82;;
69779;SDS011;57052;55.602;38.096;2023-04-06T03:01:25;11.05;;;5.20;;
69779;SDS011;57052;55.602;38.096;2023-04-06T03:03:51;9.52;;;4.63;;
69779;SDS011;57052;55.602;38.096;2023-04-06T03:06:17;10.60;;;4.88;;
69779;SDS011;57052;55.602;38.096;2023-04-06T03:08:42;9.48;;;4.97;;
69779;SDS011;57052;55.602;38.096;2023-04-06T03:11:08;9.40;;;4.70;;
69779;SDS011;57052;55.602;38.096;2023-04-06T03:13:33;10.57;;;4.97;;
69779;SDS011;57052;55.602;38.096;2023-04-06T03:15:59;9.95;;;4.95;;
69779;SDS011;57052;55.602;38.096;2023-04-06T03:18:25;9.98;;;4.82;;
69779;SDS011;57052;55.602;38.096;2023-04-06T03:20:51;11.43;;;5.13;;
69779;SDS011;57052;55.602;38.096;2023-04-06T03:23:19;10.70;;;4.95;;
69779;SDS011;57052;55.602;38.096;2023-04-06T03:25:46;10.13;;;4.80;;
69779;SDS011;57052;55.602;38.096;2023-04-06T03:28:11;10.82;;;5.00;;
69779;SDS011;57052;55.602;38.096;2023-04-06T03:30:37;11.57;;;4.88;;
69779;SDS011;57052;55.602;38.096;2023-04-06T03:33:03;10.55;;;5.07;;
69779;SDS011;57052;55.602;38.096;2023-04-06T03:35:28;11.13;;;4.43;;
69779;SDS011;57052;55.602;38.096;2023-04-06T03:37:54;9.45;;;4.63;;
69779;SDS011;57052;55.602;38.096;2023-04-06T03:40:20;9.98;;;4.60;;
69779;SDS011;57052;55.602;38.096;2023-04-06T03:42:45;9.93;;;4.68;;
69779;SDS011;57052;55.602;38.096;2023-04-06T03:45:11;8.38;;;4.50;;
69779;SDS011;57052;55.602;38.096;2023-04-06T03:47:38;9.27;;;4.63;;
69779;SDS011;57052;55.602;38.096;2023-04-06T03:50:04;8.50;;;4.32;;
69779;SDS011;57052;55.602;38.096;2023-04-06T03:52:31;9.82;;;4.22;;
69779;SDS011;57052;55.602;38.096;2023-04-06T03:54:56;8.98;;;4.43;;
69779;SDS011;57052;55.602;38.096;2023-04-06T03:57:22;8.73;;;4.55;;
69779;SDS011;57052;55.602;38.096;2023-04-06T03:59:47;9.85;;;4.53;;
69779;SDS011;57052;55.602;38.096;2023-04-06T04:02:13;7.75;;;3.72;;
69779;SDS011;57052;55.602;38.096;2023-04-06T04:04:39;6.90;;;3.78;;
69779;SDS011;57052;55.602;38.096;2023-04-06T04:07:04;8.65;;;4.07;;
69779;SDS011;57052;55.602;38.096;2023-04-06T04:09:30;11.73;;;3.83;;
69779;SDS011;57052;55.602;38.096;2023-04-06T04:11:55;10.65;;;4.00;;
69779;SDS011;57052;55.602;38.096;2023-04-06T04:14:21;8.05;;;3.40;;
69779;SDS011;57052;55.602;38.096;2023-04-06T04:16:46;8.98;;;3.55;;
69779;SDS011;57052;55.602;38.096;2023-04-06T04:19:12;15.57;;;4.03;;
69779;SDS011;57052;55.602;38.096;2023-04-06T04:21:44;11.23;;;3.70;;
69779;SDS011;57052;55.602;38.096;2023-04-06T04:24:11;9.95;;;3.80;;
69779;SDS011;57052;55.602;38.096;2023-04-06T04:26:37;7.53;;;3.47;;
69779;SDS011;57052;55.602;38.096;2023-04-06T04:29:04;6.53;;;3.70;;
69779;SDS011;57052;55.602;38.096;2023-04-06T04:31:30;13.40;;;3.63;;
69779;SDS011;57052;55.602;38.096;2023-04-06T04:33:55;8.77;;;3.50;;
69779;SDS011;57052;55.602;38.096;2023-04-06T04:36:21;9.55;;;3.60;;
69779;SDS011;57052;55.602;38.096;2023-04-06T04:38:48;10.63;;;2.90;;
69779;SDS011;57052;55.602;38.096;2023-04-06T04:41:13;9.55;;;3.17;;
69779;SDS011;57052;55.602;38.096;2023-04-06T04:43:39;11.35;;;3.47;;
69779;SDS011;57052;55.602;38.096;2023-04-06T04:46:05;14.43;;;3.30;;
69779;SDS011;57052;55.602;38.096;2023-04-06T04:48:30;6.07;;;3.00;;
69779;SDS011;57052;55.602;38.096;2023-04-06T04:50:56;5.80;;;3.10;;
69779;SDS011;57052;55.602;38.096;2023-04-06T04:53:21;6.53;;;3.25;;
69779;SDS011;57052;55.602;38.096;2023-04-06T04:55:47;7.30;;;3.10;;
69779;SDS011;57052;55.602;38.096;2023-04-06T04:58:13;5.30;;;2.90;;
69779;SDS011;57052;55.602;38.096;2023-04-06T05:00:42;10.18;;;3.30;;
69779;SDS011;57052;55.602;38.096;2023-04-06T05:03:08;8.00;;;3.30;;
69779;SDS011;57052;55.602;38.096;2023-04-06T05:05:34;9.02;;;3.05;;
69779;SDS011;57052;55.602;38.096;2023-04-06T05:08:01;7.70;;;2.95;;
69779;SDS011;57052;55.602;38.096;2023-04-06T05:10:26;5.57;;;2.65;;
69779;SDS011;57052;55.602;38.096;2023-04-06T05:12:53;6.32;;;2.92;;
69779;SDS011;57052;55.602;38.096;2023-04-06T05:15:18;7.07;;;3.30;;
69779;SDS011;57052;55.602;38.096;2023-04-06T05:17:44;10.02;;;3.60;;
69779;SDS011;57052;55.602;38.096;2023-04-06T05:20:10;7.53;;;3.05;;
69779;SDS011;57052;55.602;38.096;2023-04-06T05:22:36;7.07;;;3.00;;
69779;SDS011;57052;55.602;38.096;2023-04-06T05:25:02;9.35;;;3.00;;
69779;SDS011;57052;55.602;38.096;2023-04-06T05:27:28;6.55;;;2.90;;
69779;SDS011;57052;55.602;38.096;2023-04-06T05:29:53;8.77;;;2.90;;
69779;SDS011;57052;55.602;38.096;2023-04-06T05:32:19;9.52;;;2.90;;
69779;SDS011;57052;55.602;38.096;2023-04-06T05:34:47;4.57;;;2.67;;
69779;SDS011;57052;55.602;38.096;2023-04-06T05:37:14;6.38;;;2.95;;
69779;SDS011;57052;55.602;38.096;2023-04-06T05:39:40;9.65;;;2.88;;
69779;SDS011;57052;55.602;38.096;2023-04-06T05:42:06;10.77;;;3.13;;
69779;SDS011;57052;55.602;38.096;2023-04-06T05:44:32;13.82;;;3.08;;
69779;SDS011;57052;55.602;38.096;2023-04-06T05:46:58;6.57;;;3.58;;
69779;SDS011;57052;55.602;38.096;2023-04-06T05:49:23;5.32;;;3.00;;
69779;SDS011;57052;55.602;38.096;2023-04-06T05:51:49;5.43;;;2.60;;
69779;SDS011;57052;55.602;38.096;2023-04-06T05:54:15;5.65;;;2.50;;
69779;SDS011;57052;55.602;38.096;2023-04-06T05:56:40;5.65;;;2.80;;
69779;SDS011;57052;55.602;38.096;2023-04-06T05:59:06;7.68;;;2.58;;
69779;SDS011;57052;55.602;38.096;2023-04-06T06:01:32;6.95;;;3.00;;
69779;SDS011;57052;55.602;38.096;2023-04-06T06:04:00;7.30;;;2.55;;
69779;SDS011;57052;55.602;38.096;2023-04-06T06:06:27;7.30;;;2.55;;
69779;SDS011;57052;55.602;38.096;2023-04-06T06:08:53;3.92;;;2.50;;
69779;SDS011;57052;55.602;38.096;2023-04-06T06:11:18;10.88;;;2.88;;
69779;SDS011;57052;55.602;38.096;2023-04-06T06:13:44;6.97;;;3.05;;
69779;SDS011;57052;55.602;38.096;2023-04-06T06:16:10;7.70;;;2.72;;
69779;SDS011;57052;55.602;38.096;2023-04-06T06:18:35;6.93;;;3.10;;
69779;SDS011;57052;55.602;38.096;2023-04-06T06:21:02;5.90;;;2.95;;
69779;SDS011;57052;55.602;38.096;2023-04-06T06:23:27;5.68;;;2.90;;
69779;SDS011;57052;55.602;38.096;2023-04-06T06:25:53;9.20;;;2.92;;
69779;SDS011;57052;55.602;38.096;2023-04-06T06:28:18;7.07;;;3.40;;
69779;SDS011;57052;55.602;38.096;2023-04-06T06:30:44;6.65;;;2.80;;
69779;SDS011;57052;55.602;38.096;2023-04-06T06:33:10;6.47;;;3.30;;
69779;SDS011;57052;55.602;38.096;2023-04-06T06:35:35;6.72;;;2.50;;
69779;SDS011;57052;55.602;38.096;2023-04-06T06:38:01;8.25;;;2.80;;
69779;SDS011;57052;55.602;38.096;2023-04-06T06:40:27;5.28;;;2.60;;
69779;SDS011;57052;55.602;38.096;2023-04-06T06:42:52;5.80;;;2.50;;
69779;SDS011;57052;55.602;38.096;2023-04-06T06:45:18;5.93;;;2.90;;
69779;SDS011;57052;55.602;38.096;2023-04-06T06:47:45;7.63;;;3.28;;
69779;SDS011;57052;55.602;38.096;2023-04-06T06:50:11;10.25;;;2.75;;
69779;SDS011;57052;55.602;38.096;2023-04-06T06:52:36;15.35;;;3.97;;
69779;SDS011;57052;55.602;38.096;2023-04-06T06:55:02;10.98;;;3.00;;
69779;SDS011;57052;55.602;38.096;2023-04-06T06:57:28;10.93;;;2.83;;
69779;SDS011;57052;55.602;38.096;2023-04-06T06:59:53;11.30;;;2.60;;
69779;SDS011;57052;55.602;38.096;2023-04-06T07:02:19;8.05;;;2.90;;
69779;SDS011;57052;55.602;38.096;2023-04-06T07:04:47;5.25;;;2.55;;
69779;SDS011;57052;55.602;38.096;2023-04-06T07:07:14;12.05;;;6.93;;
69779;SDS011;57052;55.602;38.096;2023-04-06T07:09:39;7.47;;;4.10;;
69779;SDS011;57052;55.602;38.096;2023-04-06T07:12:05;7.15;;;2.95;;
69779;SDS011;57052;55.602;38.096;2023-04-06T07:14:31;7.10;;;2.60;;
69779;SDS011;57052;55.602;38.096;2023-04-06T07:16:57;12.95;;;3.00;;
69779;SDS011;57052;55.602;38.096;2023-04-06T07:19:22;11.40;;;3.03;;
69779;SDS011;57052;55.602;38.096;2023-04-06T07:21:48;7.70;;;2.83;;
69779;SDS011;57052;55.602;38.096;2023-04-06T07:24:17;6.32;;;3.17;;
69779;SDS011;57052;55.602;38.096;2023-04-06T07:26:42;5.78;;;2.50;;
69779;SDS011;57052;55.602;38.096;2023-04-06T07:29:08;9.20;;;2.70;;
69779;SDS011;57052;55.602;38.096;2023-04-06T07:31:34;9.13;;;2.45;;
69779;SDS011;57052;55.602;38.096;2023-04-06T07:34:01;6.25;;;2.55;;
69779;SDS011;57052;55.602;38.096;2023-04-06T07:36:27;11.95;;;3.35;;
69779;SDS011;57052;55.602;38.096;2023-04-06T07:38:52;7.53;;;3.40;;
69779;SDS011;57052;55.602;38.096;2023-04-06T07:41:18;6.13;;;2.85;;
69779;SDS011;57052;55.602;38.096;2023-04-06T07:43:43;7.40;;;2.90;;
69779;SDS011;57052;55.602;38.096;2023-04-06T07:46:12;5.38;;;2.80;;
69779;SDS011;57052;55.602;38.096;2023-04-06T07:48:37;6.35;;;2.72;;
69779;SDS011;57052;55.602;38.096;2023-04-06T07:51:03;10.85;;;2.67;;
69779;SDS011;57052;55.602;38.096;2023-04-06T07:53:30;7.95;;;2.53;;
69779;SDS011;57052;55.602;38.096;2023-04-06T07:55:56;5.35;;;2.58;;
69779;SDS011;57052;55.602;38.096;2023-04-06T07:58:23;5.85;;;2.35;;
69779;SDS011;57052;55.602;38.096;2023-04-06T08:00:49;6.03;;;2.35;;
69779;SDS011;57052;55.602;38.096;2023-04-06T08:03:15;7.03;;;2.35;;
69779;SDS011;57052;55.602;38.096;2023-04-06T08:05:41;11.15;;;2.45;;
69779;SDS011;57052;55.602;38.096;2023-04-06T08:08:07;6.32;;;2.40;;
69779;SDS011;57052;55.602;38.096;2023-04-06T08:10:33;6.72;;;2.30;;
69779;SDS011;57052;55.602;38.096;2023-04-06T08:13:00;5.80;;;2.20;;
69779;SDS011;57052;55.602;38.096;2023-04-06T08:15:25;7.85;;;2.50;;
69779;SDS011;57052;55.602;38.096;2023-04-06T08:17:51;5.72;;;2.20;;
69779;SDS011;57052;55.602;38.096;2023-04-06T08:20:17;6.22;;;2.63;;
69779;SDS011;57052;55.602;38.096;2023-04-06T08:22:43;3.75;;;2.28;;
69779;SDS011;57052;55.602;38.096;2023-04-06T08:25:09;6.30;;;2.08;;
69779;SDS011;57052;55.602;38.096;2023-04-06T08:27:35;5.90;;;2.30;;
69779;SDS011;57052;55.602;38.096;2023-04-06T08:30:00;6.82;;;2.35;;
69779;SDS011;57052;55.602;38.096;2023-04-06T08:32:26;5.13;;;2.30;;
69779;SDS011;57052;55.602;38.096;2023-04-06T08:34:55;8.35;;;2.58;;
69779;SDS011;57052;55.602;38.096;2023-04-06T08:37:21;6.65;;;2.30;;
69779;SDS011;57052;55.602;38.096;2023-04-06T08:39:47;11.25;;;2.10;;
69779;SDS011;57052;55.602;38.096;2023-04-06T08:42:22;5.70;;;2.00;;
69779;SDS011;57052;55.602;38.096;2023-04-06T08:44:51;12.02;;;2.22;;
69779;SDS011;57052;55.602;38.096;2023-04-06T08:47:17;4.55;;;2.10;;
69779;SDS011;57052;55.602;38.096;2023-04-06T08:49:44;9.55;;;2.15;;
69779;SDS011;57052;55.602;38.096;2023-04-06T08:52:11;5.97;;;2.10;;
69779;SDS011;57052;55.602;38.096;2023-04-06T08:54:37;6.88;;;2.20;;
69779;SDS011;57052;55.602;38.096;2023-04-06T08:57:04;11.55;;;3.75;;
69779;SDS011;57052;55.602;38.096;2023-04-06T08:59:31;3.65;;;2.00;;
69779;SDS011;57052;55.602;38.096;2023-04-06T09:01:57;8.35;;;2.20;;
69779;SDS011;57052;55.602;38.096;2023-04-06T09:04:26;7.85;;;2.17;;
69779;SDS011;57052;55.602;38.096;2023-04-06T09:06:52;5.47;;;2.20;;
69779;SDS011;57052;55.602;38.096;2023-04-06T09:09:17;10.30;;;2.45;;
69779;SDS011;57052;55.602;38.096;2023-04-06T09:14:15;7.55;;;2.08;;
69779;SDS011;57052;55.602;38.096;2023-04-06T09:16:42;5.95;;;1.98;;
69779;SDS011;57052;55.602;38.096;2023-04-06T09:19:10;12.23;;;2.75;;
69779;SDS011;57052;55.602;38.096;2023-04-06T09:21:37;6.88;;;2.33;;
69779;SDS011;57052;55.602;38.096;2023-04-06T09:24:05;10.82;;;2.20;;
69779;SDS011;57052;55.602;38.096;2023-04-06T09:26:32;4.72;;;2.00;;
69779;SDS011;57052;55.602;38.096;2023-04-06T09:28:58;6.03;;;2.10;;
69779;SDS011;57052;55.602;38.096;2023-04-06T09:31:29;13.85;;;2.50;;
69779;SDS011;57052;55.602;38.096;2023-04-06T09:33:58;8.10;;;2.17;;
69779;SDS011;57052;55.602;38.096;2023-04-06T09:36:31;7.50;;;1.90;;
69779;SDS011;57052;55.602;38.096;2023-04-06T09:38:59;7.43;;;2.22;;
69779;SDS011;57052;55.602;38.096;2023-04-06T09:41:28;14.52;;;2.28;;
69779;SDS011;57052;55.602;38.096;2023-04-06T09:44:04;4.90;;;1.98;;
69779;SDS011;57052;55.602;38.096;2023-04-06T09:46:41;5.55;;;2.10;;
69779;SDS011;57052;55.602;38.096;2023-04-06T09:49:08;7.50;;;1.73;;
69779;SDS011;57052;55.602;38.096;2023-04-06T09:54:11;8.35;;;2.00;;
69779;SDS011;57052;55.602;38.096;2023-04-06T09:56:51;8.18;;;2.17;;
69779;SDS011;57052;55.602;38.096;2023-04-06T09:59:22;5.47;;;2.08;;
69779;SDS011;57052;55.602;38.096;2023-04-06T10:02:13;7.07;;;1.95;;
69779;SDS011;57052;55.602;38.096;2023-04-06T10:04:50;5.07;;;1.88;;
69779;SDS011;57052;55.602;38.096;2023-04-06T10:07:21;5.00;;;2.00;;
69779;SDS011;57052;55.602;38.096;2023-04-06T10:09:48;6.88;;;1.70;;
69779;SDS011;57052;55.602;38.096;2023-04-06T10:12:14;9.75;;;2.10;;
69779;SDS011;57052;55.602;38.096;2023-04-06T10:14:41;6.22;;;1.85;;
69779;SDS011;57052;55.602;38.096;2023-04-06T10:17:08;6.82;;;2.17;;
69779;SDS011;57052;55.602;38.096;2023-04-06T10:19:46;8.20;;;1.95;;
69779;SDS011;57052;55.602;38.096;2023-04-06T10:22:15;7.68;;;2.20;;
69779;SDS011;57052;55.602;38.096;2023-04-06T10:24:49;9.38;;;2.10;;
69779;SDS011;57052;55.602;38.096;2023-04-06T10:27:15;9.73;;;2.17;;
69779;SDS011;57052;55.602;38.096;2023-04-06T10:29:44;9.23;;;1.95;;
69779;SDS011;57052;55.602;38.096;2023-04-06T10:32:11;7.05;;;2.17;;
69779;SDS011;57052;55.602;38.096;2023-04-06T10:34:37;9.48;;;2.30;;
69779;SDS011;57052;55.602;38.096;2023-04-06T10:37:15;10.00;;;1.90;;
69779;SDS011;57052;55.602;38.096;2023-04-06T10:39:51;7.72;;;2.00;;
69779;SDS011;57052;55.602;38.096;2023-04-06T10:42:25;8.73;;;2.50;;
69779;SDS011;57052;55.602;38.096;2023-04-06T10:45:04;7.25;;;2.70;;
69779;SDS011;57052;55.602;38.096;2023-04-06T10:47:38;6.88;;;2.03;;
69779;SDS011;57052;55.602;38.096;2023-04-06T10:50:05;8.98;;;2.22;;
69779;SDS011;57052;55.602;38.096;2023-04-06T10:52:31;5.65;;;1.90;;
69779;SDS011;57052;55.602;38.096;2023-04-06T10:54:57;8.32;;;2.35;;
69779;SDS011;57052;55.602;38.096;2023-04-06T10:57:29;9.38;;;2.45;;
69779;SDS011;57052;55.602;38.096;2023-04-06T10:59:57;4.30;;;1.75;;
69779;SDS011;57052;55.602;38.096;2023-04-06T11:02:22;10.20;;;2.35;;
69779;SDS011;57052;55.602;38.096;2023-04-06T11:04:58;8.00;;;2.15;;
69779;SDS011;57052;55.602;38.096;2023-04-06T11:07:27;4.22;;;2.08;;
69779;SDS011;57052;55.602;38.096;2023-04-06T11:09:55;4.20;;;1.80;;
69779;SDS011;57052;55.602;38.096;2023-04-06T11:12:22;11.30;;;2.42;;
69779;SDS011;57052;55.602;38.096;2023-04-06T11:14:57;7.55;;;2.00;;
69779;SDS011;57052;55.602;38.096;2023-04-06T11:17:34;9.75;;;2.58;;
69779;SDS011;57052;55.602;38.096;2023-04-06T11:20:01;7.13;;;1.90;;
69779;SDS011;57052;55.602;38.096;2023-04-06T11:22:28;8.93;;;2.10;;
69779;SDS011;57052;55.602;38.096;2023-04-06T11:25:04;12.73;;;2.40;;
69779;SDS011;57052;55.602;38.096;2023-04-06T11:27:36;9.80;;;1.98;;
69779;SDS011;57052;55.602;38.096;2023-04-06T11:30:02;7.07;;;2.00;;
69779;SDS011;57052;55.602;38.096;2023-04-06T11:32:29;8.98;;;2.20;;
69779;SDS011;57052;55.602;38.096;2023-04-06T11:34:54;20.90;;;2.75;;
69779;SDS011;57052;55.602;38.096;2023-04-06T11:37:25;8.63;;;2.20;;
69779;SDS011;57052;55.602;38.096;2023-04-06T11:39:52;8.57;;;1.95;;
69779;SDS011;57052;55.602;38.096;2023-04-06T11:42:25;9.60;;;2.63;;
69779;SDS011;57052;55.602;38.096;2023-04-06T11:44:56;8.30;;;1.92;;
69779;SDS011;57052;55.602;38.096;2023-04-06T11:47:29;8.20;;;2.05;;
69779;SDS011;57052;55.602;38.096;2023-04-06T11:50:08;6.88;;;2.00;;
69779;SDS011;57052;55.602;38.096;2023-04-06T11:52:40;10.63;;;2.25;;
69779;SDS011;57052;55.602;38.096;2023-04-06T11:55:11;5.75;;;1.80;;
69779;SDS011;57052;55.602;38.096;2023-04-06T11:57:38;10.15;;;2.45;;
69779;SDS011;57052;55.602;38.096;2023-04-06T12:00:04;9.63;;;2.03;;
69779;SDS011;57052;55.602;38.096;2023-04-06T12:02:31;8.35;;;1.88;;
69779;SDS011;57052;55.602;38.096;2023-04-06T12:04:57;8.57;;;2.20;;
69779;SDS011;57052;55.602;38.096;2023-04-06T12:07:23;4.53;;;1.88;;
69779;SDS011;57052;55.602;38.096;2023-04-06T12:09:48;11.75;;;2.10;;
69779;SDS011;57052;55.602;38.096;2023-04-06T12:12:14;9.73;;;1.70;;
69779;SDS011;57052;55.602;38.096;2023-04-06T12:14:40;13.43;;;2.05;;
69779;SDS011;57052;55.602;38.096;2023-04-06T12:17:05;5.35;;;1.70;;
69779;SDS011;57052;55.602;38.096;2023-04-06T12:19:31;8.60;;;1.75;;
69779;SDS011;57052;55.602;38.096;2023-04-06T12:21:56;4.00;;;1.52;;
69779;SDS011;57052;55.602;38.096;2023-04-06T12:24:22;7.00;;;1.77;;
69779;SDS011;57052;55.602;38.096;2023-04-06T12:26:48;6.68;;;1.88;;
69779;SDS011;57052;55.602;38.096;2023-04-06T12:29:15;5.57;;;1.90;;
69779;SDS011;57052;55.602;38.096;2023-04-06T12:31:40;6.95;;;1.90;;
69779;SDS011;57052;55.602;38.096;2023-04-06T12:34:07;8.15;;;2.00;;
69779;SDS011;57052;55.602;38.096;2023-04-06T12:36:33;7.53;;;1.80;;
69779;SDS011;57052;55.602;38.096;2023-04-06T12:38:59;7.13;;;1.98;;
69779;SDS011;57052;55.602;38.096;2023-04-06T12:41:27;5.65;;;1.90;;
69779;SDS011;57052;55.602;38.096;2023-04-06T12:43:52;11.13;;;2.20;;
69779;SDS011;57052;55.602;38.096;2023-04-06T12:46:18;6.93;;;1.80;;
69779;SDS011;57052;55.602;38.096;2023-04-06T12:48:44;4.45;;;1.75;;
69779;SDS011;57052;55.602;38.096;2023-04-06T12:51:10;8.27;;;2.20;;
69779;SDS011;57052;55.602;38.096;2023-04-06T12:53:36;3.97;;;1.90;;
69779;SDS011;57052;55.602;38.096;2023-04-06T12:56:02;11.48;;;2.45;;
69779;SDS011;57052;55.602;38.096;2023-04-06T12:58:28;4.25;;;1.80;;
69779;SDS011;57052;55.602;38.096;2023-04-06T13:00:54;6.78;;;2.35;;
69779;SDS011;57052;55.602;38.096;2023-04-06T13:03:23;4.97;;;1.70;;
69779;SDS011;57052;55.602;38.096;2023-04-06T13:05:51;5.78;;;1.70;;
69779;SDS011;57052;55.602;38.096;2023-04-06T13:08:20;5.68;;;1.63;;
69779;SDS011;57052;55.602;38.096;2023-04-06T13:10:46;4.18;;;1.80;;
69779;SDS011;57052;55.602;38.096;2023-04-06T13:13:15;3.95;;;1.60;;
69779;SDS011;57052;55.602;38.096;2023-04-06T13:15:41;6.35;;;2.05;;
69779;SDS011;57052;55.602;38.096;2023-04-06T13:18:07;6.03;;;1.98;;
69779;SDS011;57052;55.602;38.096;2023-04-06T13:20:33;11.25;;;2.15;;
69779;SDS011;57052;55.602;38.096;2023-04-06T13:23:00;9.48;;;2.20;;
69779;SDS011;57052;55.602;38.096;2023-04-06T13:25:25;6.00;;;2.00;;
69779;SDS011;57052;55.602;38.096;2023-04-06T13:27:51;9.15;;;1.90;;
69779;SDS011;57052;55.602;38.096;2023-04-06T13:30:16;4.15;;;1.80;;
69779;SDS011;57052;55.602;38.096;2023-04-06T13:32:42;7.60;;;1.70;;
69779;SDS011;57052;55.602;38.096;2023-04-06T13:35:08;30.80;;;2.85;;
69779;SDS011;57052;55.602;38.096;2023-04-06T13:37:34;5.45;;;2.00;;
69779;SDS011;57052;55.602;38.096;2023-04-06T13:40:01;7.80;;;2.08;;
69779;SDS011;57052;55.602;38.096;2023-04-06T13:42:28;6.30;;;1.73;;
69779;SDS011;57052;55.602;38.096;2023-04-06T13:44:53;4.82;;;2.00;;
69779;SDS011;57052;55.602;38.096;2023-04-06T13:47:19;7.30;;;2.17;;
69779;SDS011;57052;55.602;38.096;2023-04-06T13:49:46;3.72;;;1.52;;
69779;SDS011;57052;55.602;38.096;2023-04-06T13:52:12;3.10;;;1.48;;
69779;SDS011;57052;55.602;38.096;2023-04-06T13:54:38;4.25;;;1.63;;
69779;SDS011;57052;55.602;38.096;2023-04-06T13:57:03;10.98;;;2.00;;
69779;SDS011;57052;55.602;38.096;2023-04-06T13:59:36;3.85;;;1.65;;
69779;SDS011;57052;55.602;38.096;2023-04-06T14:02:02;7.95;;;2.60;;
69779;SDS011;57052;55.602;38.096;2023-04-06T14:04:29;6.90;;;1.80;;
69779;SDS011;57052;55.602;38.096;2023-04-06T14:06:55;8.90;;;1.80;;
69779;SDS011;57052;55.602;38.096;2023-04-06T14:09:21;7.85;;;1.98;;
69779;SDS011;57052;55.602;38.096;2023-04-06T14:11:47;3.67;;;1.80;;
69779;SDS011;57052;55.602;38.096;2023-04-06T14:14:13;5.00;;;1.92;;
69779;SDS011;57052;55.602;38.096;2023-04-06T14:16:39;6.90;;;1.85;;
69779;SDS011;57052;55.602;38.096;2023-04-06T14:19:05;6.57;;;1.63;;
69779;SDS011;57052;55.602;38.096;2023-04-06T14:21:31;13.45;;;2.30;;
69779;SDS011;57052;55.602;38.096;2023-04-06T14:23:57;9.82;;;1.83;;
69779;SDS011;57052;55.602;38.096;2023-04-06T14:26:23;5.35;;;1.60;;
69779;SDS011;57052;55.602;38.096;2023-04-06T14:28:49;4.40;;;1.45;;
69779;SDS011;57052;55.602;38.096;2023-04-06T14:31:15;6.43;;;2.00;;
69779;SDS011;57052;55.602;38.096;2023-04-06T14:33:41;4.82;;;1.77;;